CHO weather

Charlottesville Albemarle Airport
Charlottesville, Virginia, United States

Public forecast

Using degrees Fahrenheit for public forecast. Weather courtesy of forecast.io.

Current aviation weather report (METAR) for Charlottesville Albemarle Airport

Retrieved 2019/10/16 19:53 UTC (1 hour ago):

KCHO 161953Z 31007KT 10SM FEW080 OVC100 17/12 A2957 RMK AO2 SLP010 T01720117

Aviation forecast (TAF) for Charlottesville Albemarle Airport

Retrieved 2019/10/16 18:22 UTC (3 hours ago):

TAF KCHO 161720Z 1618/1718 00000KT 3SM -RA OVC010 FM162000 26004KT P6SM OVC050 FM162200 30008KT P6SM SCT250 FM170000 29010G24KT P6SM FEW250